ADDS METAR Data INFO
IDs: Format: Raw Decoded Include TAF

Data at: 0326 UTC 19 Jul 2018

K2G4 190320Z AUTO 00000KT 10SM CLR 16/08 A3014 RMK AO1
K2G4 190300Z AUTO 00000KT 10SM CLR 16/09 A3014 RMK AO1
K2G4 190240Z AUTO 00000KT 10SM CLR 16/09 A3014 RMK AO1
K2G4 190220Z AUTO 00000KT 10SM CLR 16/08 A3013 RMK AO1
K2G4 190200Z AUTO 00000KT 10SM CLR 16/08 A3013 RMK AO1
K2G4 190140Z AUTO 32003KT 10SM CLR 16/08 A3012 RMK AO1
K2G4 190120Z AUTO 00000KT 10SM CLR 16/09 A3012 RMK AO1
K2G4 190100Z AUTO 00000KT 10SM CLR 16/09 A3011 RMK AO1
K2G4 190040Z AUTO 31003KT 10SM CLR 16/09 A3011 RMK AO1
K2G4 190020Z AUTO 32003KT 10SM CLR 17/10 A3011 RMK AO1
K2G4 190000Z AUTO 00000KT 10SM CLR 18/10 A3011 RMK AO1
K2G4 182340Z AUTO 00000KT 10SM CLR 18/10 A3011 RMK AO1
K2G4 182320Z AUTO 32003KT 10SM CLR 18/10 A3011 RMK AO1
K2G4 182300Z AUTO 36005KT 10SM CLR 19/11 A3011 RMK AO1
K2G4 182240Z AUTO 00000KT 10SM CLR 18/11 A3011 RMK AO1
K2G4 182220Z AUTO 29003KT 10SM CLR 19/10 A3011 RMK AO1
K2G4 182200Z AUTO 34005KT 10SM CLR 20/10 A3011 RMK AO1
K2G4 182140Z AUTO 32003KT 10SM CLR 20/10 A3011 RMK AO1
K2G4 182120Z AUTO 35005KT 10SM CLR 20/10 A3011 RMK AO1
K2G4 182100Z AUTO 33003KT 10SM CLR 20/10 A3011 RMK AO1
K2G4 182040Z AUTO 32003KT 10SM CLR 18/10 A3011 RMK AO1
K2G4 182020Z AUTO 35006KT 10SM CLR 20/09 A3011 RMK AO1
K2G4 182000Z AUTO 32006KT 10SM CLR 21/10 A3011 RMK AO1
K2G4 181940Z AUTO 32005KT 10SM SCT043 21/10 A3011 RMK AO1
K2G4 181920Z AUTO 32006KT 10SM SCT041 20/10 A3012 RMK AO1
K2G4 181900Z AUTO 31006KT 10SM SCT039 20/10 A3012 RMK AO1
K2G4 181840Z AUTO 33004KT 10SM BKN039 19/10 A3012 RMK AO1
K2G4 181820Z AUTO 32004KT 10SM SCT041 18/11 A3012 RMK AO1
K2G4 181800Z AUTO 31006KT 10SM SCT041 20/10 A3012 RMK AO1
K2G4 181740Z AUTO 33007KT 10SM SCT038 20/10 A3012 RMK AO1
K2G4 181720Z AUTO 32005KT 10SM SCT038 19/10 A3012 RMK AO1
K2G4 181700Z AUTO 31006KT 10SM SCT038 19/09 A3012 RMK AO1
K2G4 181640Z AUTO 35005KT 10SM SCT035 18/09 A3013 RMK AO1
K2G4 181620Z AUTO 32005KT 10SM SCT033 18/10 A3013 RMK AO1
K2G4 181600Z AUTO 36006KT 10SM CLR 18/10 A3013 RMK AO1
K2G4 181540Z AUTO 33006KT 10SM CLR 18/10 A3013 RMK AO1
K2G4 181520Z AUTO 33005KT 10SM CLR 17/09 A3013 RMK AO1
K2G4 181500Z AUTO 35006KT 322V032 10SM CLR 17/10 A3012 RMK AO1
K2G4 181440Z AUTO 34007KT 312V032 10SM CLR 17/11 A3012 RMK AO1
K2G4 181420Z AUTO 32007KT 10SM CLR 16/11 A3012 RMK AO1
K2G4 181400Z AUTO 33005KT 10SM CLR 16/12 A3012 RMK AO1
K2G4 181340Z AUTO 33006KT 10SM CLR 15/12 A3012 RMK AO1
K2G4 181320Z AUTO 34006KT 10SM CLR 15/12 A3011 RMK AO1
K2G4 181300Z AUTO 35005KT 10SM CLR 15/12 A3011 RMK AO1
K2G4 181240Z AUTO 35006KT 10SM CLR 15/12 A3011 RMK AO1
K2G4 181220Z AUTO 34005KT 10SM CLR 13/11 A3010 RMK AO1
K2G4 181200Z AUTO 33005KT 10SM CLR 13/11 A3010 RMK AO1
K2G4 181140Z AUTO 34006KT 10SM CLR 13/11 A3009 RMK AO1
K2G4 181120Z AUTO 32004KT 10SM CLR 12/11 A3008 RMK AO1
K2G4 181100Z AUTO 32004KT 10SM CLR 12/11 A3008 RMK AO1
K2G4 181040Z AUTO 33004KT 10SM CLR 12/11 A3007 RMK AO1
K2G4 181020Z AUTO 32003KT 10SM CLR 12/11 A3007 RMK AO1
K2G4 181000Z AUTO 32004KT 10SM CLR 12/11 A3007 RMK AO1
K2G4 180940Z AUTO 32003KT 10SM CLR 12/11 A3007 RMK AO1
K2G4 180920Z AUTO 32003KT 10SM CLR 12/11 A3007 RMK AO1
K2G4 180900Z AUTO 32004KT 10SM CLR 12/11 A3006 RMK AO1
K2G4 180840Z AUTO 31003KT 10SM CLR 12/11 A3006 RMK AO1
K2G4 180820Z AUTO 31004KT 10SM CLR 12/11 A3007 RMK AO1
K2G4 180800Z AUTO 32003KT 10SM CLR 13/11 A3007 RMK AO1
K2G4 180740Z AUTO 30005KT 10SM CLR 13/11 A3007 RMK AO1
K2G4 180720Z AUTO 33005KT 10SM CLR 13/11 A3007 RMK AO1
K2G4 180700Z AUTO 31004KT 10SM CLR 13/11 A3007 RMK AO1
K2G4 180640Z AUTO 33005KT 10SM CLR 13/11 A3006 RMK AO1
K2G4 180620Z AUTO 31003KT 10SM CLR 13/11 A3006 RMK AO1
K2G4 180600Z AUTO 33004KT 10SM CLR 13/11 A3006 RMK AO1
K2G4 180540Z AUTO 31003KT 10SM CLR 14/11 A3006 RMK AO1
K2G4 180520Z AUTO 33003KT 10SM CLR 14/12 A3007 RMK AO1
K2G4 180500Z AUTO 33004KT 10SM CLR 15/12 A3007 RMK AO1
K2G4 180440Z AUTO 33004KT 10SM CLR 15/12 A3007 RMK AO1
K2G4 180420Z AUTO 33003KT 10SM CLR 15/12 A3007 RMK AO1
K2G4 180400Z AUTO 32004KT 10SM CLR 15/12 A3007 RMK AO1
K2G4 180340Z AUTO 33004KT 10SM CLR 15/12 A3007 RMK AO1
K2G4 180320Z AUTO 34004KT 10SM CLR 16/12 A3007 RMK AO1
K2G4 180300Z AUTO 34004KT 10SM CLR 16/12 A3007 RMK AO1
K2G4 180240Z AUTO 34004KT 10SM CLR 17/12 A3007 RMK AO1
K2G4 180220Z AUTO 35005KT 10SM SCT050 17/12 A3007 RMK AO1
K2G4 180200Z AUTO 36004KT 10SM BKN050 17/13 A3006 RMK AO1
K2G4 180140Z AUTO 36005KT 10SM BKN048 18/13 A3006 RMK AO1
K2G4 180120Z AUTO 34006KT 10SM BKN046 18/13 A3005 RMK AO1
K2G4 180100Z AUTO 34008KT 302V012 10SM BKN044 19/13 A3004 RMK AO1
K2G4 180040Z AUTO 35005KT 10SM BKN040 19/13 A3003 RMK AO1
K2G4 180020Z AUTO 33006KT 10SM BKN038 BKN048 20/15 A3002 RMK AO1
K2G4 180000Z AUTO 32005G14KT 10SM BKN034 BKN041 20/15 A3002 RMK AO1
K2G4 172340Z AUTO 33007KT 10SM BKN028 BKN043 21/16 A3001 RMK AO1
K2G4 172320Z AUTO 32005G14KT 10SM SCT031 SCT036 22/16 A3000 RMK AO1
K2G4 172300Z AUTO 31005KT 10SM CLR 22/16 A2999 RMK AO1
K2G4 172240Z AUTO 30009G15KT 272V332 10SM CLR 23/15 A2998 RMK AO1
K2G4 172220Z AUTO 31007G14KT 282V352 10SM CLR 23/15 A2998 RMK AO1
K2G4 172200Z AUTO 30007G15KT 262V342 10SM CLR 23/15 A2998 RMK AO1
K2G4 172140Z AUTO 29009G15KT 242V352 10SM CLR 23/17 A2997 RMK AO1
K2G4 172120Z AUTO 31008KT 272V012 10SM CLR 24/17 A2997 RMK AO1
K2G4 172100Z AUTO 29006KT 262V332 10SM SCT030 SCT037 24/17 A2997 RMK AO1
K2G4 172040Z AUTO 31008G15KT 262V342 10SM SCT030 SCT037 24/18 A2996 RMK AO1
K2G4 172020Z AUTO 31008KT 292V352 10SM SCT021 SCT030 SCT035 23/18 A2996 RMK AO1
K2G4 172000Z AUTO 29007KT 10SM SCT017 SCT022 SCT027 24/19 A2996 RMK AO1
K2G4 171940Z AUTO 34005KT 10SM SCT015 SCT020 SCT027 23/20 A2997 RMK AO1
K2G4 171920Z AUTO 30008G14KT 10SM SCT011 SCT016 23/20 A2997 RMK AO1
K2G4 171900Z AUTO 28007KT 252V322 10SM SCT013 22/20 A2998 RMK AO1
K2G4 171840Z AUTO 29005KT 7SM SCT006 SCT012 21/21 A2999 RMK AO1
K2G4 171820Z AUTO 31006G14KT 1 1/4SM BKN006 OVC011 20/20 A3000 RMK AO1 VIS 1/2V5
K2G4 171800Z AUTO 35004KT 10SM BKN009 BKN012 BKN017 22/20 A3000 RMK AO1
K2G4 171740Z AUTO 31005KT 7SM SCT004 BKN009 BKN014 21/20 A3000 RMK AO1
K2G4 171720Z AUTO 28006KT 5SM OVC004 21/21 A3001 RMK AO1
K2G4 171700Z AUTO 28007KT 3SM BKN004 OVC007 20/20 A3001 RMK AO1
K2G4 171640Z AUTO 28005KT 4SM BKN004 OVC010 20/20 A3001 RMK AO1
K2G4 171620Z AUTO 29005KT 4SM BKN004 OVC010 21/20 A3001 RMK AO1
K2G4 171600Z AUTO 28005KT 5SM OVC004 20/20 A3001 RMK AO1
K2G4 171540Z AUTO 29005KT 242V332 4SM OVC002 20/20 A3001 RMK AO1